sensor_id;sensor_type;location;lat;lon;timestamp;temperature;humidity
25554;DHT22;13446;50.926;5.332;2023-05-10T00:02:22;15.40;99.90
25554;DHT22;13446;50.926;5.332;2023-05-10T00:04:48;15.30;99.90
25554;DHT22;13446;50.926;5.332;2023-05-10T00:07:14;15.30;99.90
25554;DHT22;13446;50.926;5.332;2023-05-10T00:09:39;15.30;99.90
25554;DHT22;13446;50.926;5.332;2023-05-10T00:12:05;15.30;99.90
25554;DHT22;13446;50.926;5.332;2023-05-10T00:14:30;15.40;99.90
25554;DHT22;13446;50.926;5.332;2023-05-10T00:16:56;15.40;99.90
25554;DHT22;13446;50.926;5.332;2023-05-10T00:19:22;15.40;99.90
25554;DHT22;13446;50.926;5.332;2023-05-10T00:21:47;15.30;99.90
25554;DHT22;13446;50.926;5.332;2023-05-10T00:24:13;15.20;99.90
25554;DHT22;13446;50.926;5.332;2023-05-10T00:26:39;15.30;99.90
25554;DHT22;13446;50.926;5.332;2023-05-10T00:29:07;15.30;99.90
25554;DHT22;13446;50.926;5.332;2023-05-10T00:31:33;15.30;99.90
25554;DHT22;13446;50.926;5.332;2023-05-10T00:33:58;15.20;99.90
25554;DHT22;13446;50.926;5.332;2023-05-10T00:36:24;15.30;99.90
25554;DHT22;13446;50.926;5.332;2023-05-10T00:38:49;15.30;99.90
25554;DHT22;13446;50.926;5.332;2023-05-10T00:41:15;15.30;99.90
25554;DHT22;13446;50.926;5.332;2023-05-10T00:43:41;15.40;99.90
25554;DHT22;13446;50.926;5.332;2023-05-10T00:46:06;15.40;99.90
25554;DHT22;13446;50.926;5.332;2023-05-10T00:48:32;15.30;99.90
25554;DHT22;13446;50.926;5.332;2023-05-10T00:50:58;15.40;99.90
25554;DHT22;13446;50.926;5.332;2023-05-10T00:53:24;15.40;99.90
25554;DHT22;13446;50.926;5.332;2023-05-10T00:55:49;15.50;99.90
25554;DHT22;13446;50.926;5.332;2023-05-10T00:58:16;15.50;99.90
25554;DHT22;13446;50.926;5.332;2023-05-10T01:00:42;15.30;99.90
25554;DHT22;13446;50.926;5.332;2023-05-10T01:03:09;15.20;99.90
25554;DHT22;13446;50.926;5.332;2023-05-10T01:05:35;15.20;99.90
25554;DHT22;13446;50.926;5.332;2023-05-10T01:08:01;15.30;99.90
25554;DHT22;13446;50.926;5.332;2023-05-10T01:10:27;15.20;99.90
25554;DHT22;13446;50.926;5.332;2023-05-10T01:12:53;15.20;99.90
25554;DHT22;13446;50.926;5.332;2023-05-10T01:15:18;15.20;99.90
25554;DHT22;13446;50.926;5.332;2023-05-10T01:17:45;15.20;99.90
25554;DHT22;13446;50.926;5.332;2023-05-10T01:20:12;15.20;99.90
25554;DHT22;13446;50.926;5.332;2023-05-10T01:25:23;15.20;99.90
25554;DHT22;13446;50.926;5.332;2023-05-10T01:30:40;15.10;99.90
25554;DHT22;13446;50.926;5.332;2023-05-10T01:35:49;15.10;99.90
25554;DHT22;13446;50.926;5.332;2023-05-10T01:38:24;15.10;99.90
25554;DHT22;13446;50.926;5.332;2023-05-10T01:40:59;15.00;99.90
25554;DHT22;13446;50.926;5.332;2023-05-10T01:43:37;15.20;99.90
25554;DHT22;13446;50.926;5.332;2023-05-10T01:46:09;15.20;99.90
25554;DHT22;13446;50.926;5.332;2023-05-10T01:48:40;15.20;99.90
25554;DHT22;13446;50.926;5.332;2023-05-10T01:51:11;15.20;99.90
25554;DHT22;13446;50.926;5.332;2023-05-10T01:53:37;15.20;99.90
25554;DHT22;13446;50.926;5.332;2023-05-10T01:56:04;15.20;99.90
25554;DHT22;13446;50.926;5.332;2023-05-10T01:58:31;15.10;99.90
25554;DHT22;13446;50.926;5.332;2023-05-10T02:00:58;15.10;99.90
25554;DHT22;13446;50.926;5.332;2023-05-10T02:03:25;15.20;99.90
25554;DHT22;13446;50.926;5.332;2023-05-10T02:05:52;15.10;99.90
25554;DHT22;13446;50.926;5.332;2023-05-10T02:08:18;15.00;99.90
25554;DHT22;13446;50.926;5.332;2023-05-10T02:10:46;15.00;99.90
25554;DHT22;13446;50.926;5.332;2023-05-10T02:13:12;15.00;99.90
25554;DHT22;13446;50.926;5.332;2023-05-10T02:15:38;15.00;99.90
25554;DHT22;13446;50.926;5.332;2023-05-10T02:18:04;15.00;99.90
25554;DHT22;13446;50.926;5.332;2023-05-10T02:20:31;15.10;99.90
25554;DHT22;13446;50.926;5.332;2023-05-10T02:22:57;15.00;99.90
25554;DHT22;13446;50.926;5.332;2023-05-10T02:25:23;15.00;99.90
25554;DHT22;13446;50.926;5.332;2023-05-10T02:27:48;15.10;99.90
25554;DHT22;13446;50.926;5.332;2023-05-10T02:30:15;15.10;99.90
25554;DHT22;13446;50.926;5.332;2023-05-10T02:32:41;15.10;99.90
25554;DHT22;13446;50.926;5.332;2023-05-10T02:35:08;15.00;99.90
25554;DHT22;13446;50.926;5.332;2023-05-10T02:37:35;15.10;99.90
25554;DHT22;13446;50.926;5.332;2023-05-10T02:40:02;15.10;99.90
25554;DHT22;13446;50.926;5.332;2023-05-10T02:42:29;15.10;99.90
25554;DHT22;13446;50.926;5.332;2023-05-10T02:45:00;15.20;99.90
25554;DHT22;13446;50.926;5.332;2023-05-10T02:47:26;15.10;99.90
25554;DHT22;13446;50.926;5.332;2023-05-10T02:49:52;15.10;99.90
25554;DHT22;13446;50.926;5.332;2023-05-10T02:52:23;15.20;99.90
25554;DHT22;13446;50.926;5.332;2023-05-10T02:54:50;15.20;99.90
25554;DHT22;13446;50.926;5.332;2023-05-10T02:57:17;15.10;99.90
25554;DHT22;13446;50.926;5.332;2023-05-10T02:59:46;15.10;99.90
25554;DHT22;13446;50.926;5.332;2023-05-10T03:02:14;15.10;99.90
25554;DHT22;13446;50.926;5.332;2023-05-10T03:04:40;15.10;99.90
25554;DHT22;13446;50.926;5.332;2023-05-10T03:07:05;15.10;99.90
25554;DHT22;13446;50.926;5.332;2023-05-10T03:09:31;15.10;99.90
25554;DHT22;13446;50.926;5.332;2023-05-10T03:12:03;15.10;99.90
25554;DHT22;13446;50.926;5.332;2023-05-10T03:19:51;15.10;99.90
25554;DHT22;13446;50.926;5.332;2023-05-10T03:22:23;15.20;99.90
25554;DHT22;13446;50.926;5.332;2023-05-10T03:24:50;15.10;99.90
25554;DHT22;13446;50.926;5.332;2023-05-10T03:27:18;15.10;99.90
25554;DHT22;13446;50.926;5.332;2023-05-10T03:29:44;15.10;99.90
25554;DHT22;13446;50.926;5.332;2023-05-10T03:32:11;15.00;99.90
25554;DHT22;13446;50.926;5.332;2023-05-10T03:34:41;15.00;99.90
25554;DHT22;13446;50.926;5.332;2023-05-10T03:37:06;14.90;99.90
25554;DHT22;13446;50.926;5.332;2023-05-10T03:39:32;15.00;99.90
25554;DHT22;13446;50.926;5.332;2023-05-10T03:41:57;15.00;99.90
25554;DHT22;13446;50.926;5.332;2023-05-10T03:44:23;15.00;99.90
25554;DHT22;13446;50.926;5.332;2023-05-10T03:46:48;14.90;99.90
25554;DHT22;13446;50.926;5.332;2023-05-10T03:49:14;15.00;99.90
25554;DHT22;13446;50.926;5.332;2023-05-10T03:51:39;15.00;99.90
25554;DHT22;13446;50.926;5.332;2023-05-10T03:54:05;15.00;99.90
25554;DHT22;13446;50.926;5.332;2023-05-10T03:56:30;15.10;99.90
25554;DHT22;13446;50.926;5.332;2023-05-10T03:58:56;15.20;99.90
25554;DHT22;13446;50.926;5.332;2023-05-10T04:01:22;15.10;99.90
25554;DHT22;13446;50.926;5.332;2023-05-10T04:03:47;15.10;99.90
25554;DHT22;13446;50.926;5.332;2023-05-10T04:06:13;15.00;99.90
25554;DHT22;13446;50.926;5.332;2023-05-10T04:08:39;15.20;99.90
25554;DHT22;13446;50.926;5.332;2023-05-10T04:11:05;15.20;99.90
25554;DHT22;13446;50.926;5.332;2023-05-10T04:13:31;15.20;99.90
25554;DHT22;13446;50.926;5.332;2023-05-10T04:15:57;14.90;99.90
25554;DHT22;13446;50.926;5.332;2023-05-10T04:18:23;14.80;99.90
25554;DHT22;13446;50.926;5.332;2023-05-10T04:20:48;14.80;99.90
25554;DHT22;13446;50.926;5.332;2023-05-10T04:23:14;14.70;99.90
25554;DHT22;13446;50.926;5.332;2023-05-10T04:25:40;14.80;99.90
25554;DHT22;13446;50.926;5.332;2023-05-10T04:28:06;14.90;99.90
25554;DHT22;13446;50.926;5.332;2023-05-10T04:30:31;14.90;99.90
25554;DHT22;13446;50.926;5.332;2023-05-10T04:32:57;15.00;99.90
25554;DHT22;13446;50.926;5.332;2023-05-10T04:35:23;14.90;99.90
25554;DHT22;13446;50.926;5.332;2023-05-10T04:37:48;14.80;99.90
25554;DHT22;13446;50.926;5.332;2023-05-10T04:40:14;14.80;99.90
25554;DHT22;13446;50.926;5.332;2023-05-10T04:42:40;14.80;99.90
25554;DHT22;13446;50.926;5.332;2023-05-10T04:45:08;14.90;99.90
25554;DHT22;13446;50.926;5.332;2023-05-10T04:47:34;14.90;99.90
25554;DHT22;13446;50.926;5.332;2023-05-10T04:50:00;14.90;99.90
25554;DHT22;13446;50.926;5.332;2023-05-10T04:52:26;15.00;99.90
25554;DHT22;13446;50.926;5.332;2023-05-10T04:54:51;14.90;99.90
25554;DHT22;13446;50.926;5.332;2023-05-10T04:57:18;14.80;99.90
25554;DHT22;13446;50.926;5.332;2023-05-10T04:59:43;14.80;99.90
25554;DHT22;13446;50.926;5.332;2023-05-10T05:02:09;14.90;99.90
25554;DHT22;13446;50.926;5.332;2023-05-10T05:04:35;14.90;99.90
25554;DHT22;13446;50.926;5.332;2023-05-10T05:07:00;14.70;99.90
25554;DHT22;13446;50.926;5.332;2023-05-10T05:09:25;14.60;99.90
25554;DHT22;13446;50.926;5.332;2023-05-10T05:11:51;14.60;99.90
25554;DHT22;13446;50.926;5.332;2023-05-10T05:14:16;14.60;99.90
25554;DHT22;13446;50.926;5.332;2023-05-10T05:16:42;14.70;99.90
25554;DHT22;13446;50.926;5.332;2023-05-10T05:19:08;14.70;99.90
25554;DHT22;13446;50.926;5.332;2023-05-10T05:21:33;14.70;99.90
25554;DHT22;13446;50.926;5.332;2023-05-10T05:23:59;14.70;99.90
25554;DHT22;13446;50.926;5.332;2023-05-10T05:26:25;14.70;99.90
25554;DHT22;13446;50.926;5.332;2023-05-10T05:28:51;14.60;99.90
25554;DHT22;13446;50.926;5.332;2023-05-10T05:31:19;14.60;99.90
25554;DHT22;13446;50.926;5.332;2023-05-10T05:33:45;14.70;99.90
25554;DHT22;13446;50.926;5.332;2023-05-10T05:36:11;14.60;99.90
25554;DHT22;13446;50.926;5.332;2023-05-10T05:38:37;14.60;99.90
25554;DHT22;13446;50.926;5.332;2023-05-10T05:41:02;14.60;99.90
25554;DHT22;13446;50.926;5.332;2023-05-10T05:43:28;14.60;99.90
25554;DHT22;13446;50.926;5.332;2023-05-10T05:45:54;14.60;99.90
25554;DHT22;13446;50.926;5.332;2023-05-10T05:48:23;14.70;99.90
25554;DHT22;13446;50.926;5.332;2023-05-10T05:50:48;14.70;99.90
25554;DHT22;13446;50.926;5.332;2023-05-10T05:53:14;14.70;99.90
25554;DHT22;13446;50.926;5.332;2023-05-10T05:55:50;14.70;99.90
25554;DHT22;13446;50.926;5.332;2023-05-10T05:58:15;14.70;99.90
25554;DHT22;13446;50.926;5.332;2023-05-10T06:00:41;14.90;99.90
25554;DHT22;13446;50.926;5.332;2023-05-10T06:03:07;14.90;99.90
25554;DHT22;13446;50.926;5.332;2023-05-10T06:05:32;14.90;99.90
25554;DHT22;13446;50.926;5.332;2023-05-10T06:07:59;15.10;99.90
25554;DHT22;13446;50.926;5.332;2023-05-10T06:10:24;15.10;99.90
25554;DHT22;13446;50.926;5.332;2023-05-10T06:12:50;15.20;99.90
25554;DHT22;13446;50.926;5.332;2023-05-10T06:15:16;15.30;99.90
25554;DHT22;13446;50.926;5.332;2023-05-10T06:17:41;15.30;99.90
25554;DHT22;13446;50.926;5.332;2023-05-10T06:20:08;15.40;99.90
25554;DHT22;13446;50.926;5.332;2023-05-10T06:22:34;15.30;99.90
25554;DHT22;13446;50.926;5.332;2023-05-10T06:24:59;15.40;99.90
25554;DHT22;13446;50.926;5.332;2023-05-10T06:27:25;15.40;99.90
25554;DHT22;13446;50.926;5.332;2023-05-10T06:29:51;15.40;99.90
25554;DHT22;13446;50.926;5.332;2023-05-10T06:32:16;15.50;99.90
25554;DHT22;13446;50.926;5.332;2023-05-10T06:34:42;15.50;99.90
25554;DHT22;13446;50.926;5.332;2023-05-10T06:37:08;15.50;99.90
25554;DHT22;13446;50.926;5.332;2023-05-10T06:39:34;15.50;99.90
25554;DHT22;13446;50.926;5.332;2023-05-10T06:41:59;15.60;99.90
25554;DHT22;13446;50.926;5.332;2023-05-10T06:44:26;15.60;99.90
25554;DHT22;13446;50.926;5.332;2023-05-10T06:46:51;15.70;99.90
25554;DHT22;13446;50.926;5.332;2023-05-10T06:49:18;15.60;99.90
25554;DHT22;13446;50.926;5.332;2023-05-10T06:51:44;15.60;99.90
25554;DHT22;13446;50.926;5.332;2023-05-10T06:54:10;15.60;99.90
25554;DHT22;13446;50.926;5.332;2023-05-10T06:56:35;15.60;99.90
25554;DHT22;13446;50.926;5.332;2023-05-10T06:59:01;15.60;99.90
25554;DHT22;13446;50.926;5.332;2023-05-10T07:01:26;15.70;99.90
25554;DHT22;13446;50.926;5.332;2023-05-10T07:03:52;15.70;99.90
25554;DHT22;13446;50.926;5.332;2023-05-10T07:06:18;15.80;99.90
25554;DHT22;13446;50.926;5.332;2023-05-10T07:08:43;15.80;99.90
25554;DHT22;13446;50.926;5.332;2023-05-10T07:11:09;15.90;99.90
25554;DHT22;13446;50.926;5.332;2023-05-10T07:13:38;15.80;99.90
25554;DHT22;13446;50.926;5.332;2023-05-10T07:16:06;15.70;99.90
25554;DHT22;13446;50.926;5.332;2023-05-10T07:18:33;15.80;99.90
25554;DHT22;13446;50.926;5.332;2023-05-10T07:20:58;15.90;99.90
25554;DHT22;13446;50.926;5.332;2023-05-10T07:23:24;15.90;99.90
25554;DHT22;13446;50.926;5.332;2023-05-10T07:25:50;15.90;99.90
25554;DHT22;13446;50.926;5.332;2023-05-10T07:28:19;15.90;99.90
25554;DHT22;13446;50.926;5.332;2023-05-10T07:30:44;15.90;99.90
25554;DHT22;13446;50.926;5.332;2023-05-10T07:33:10;16.00;99.90
25554;DHT22;13446;50.926;5.332;2023-05-10T07:35:36;16.10;99.90
25554;DHT22;13446;50.926;5.332;2023-05-10T07:38:02;16.10;99.90
25554;DHT22;13446;50.926;5.332;2023-05-10T07:40:28;16.00;99.90
25554;DHT22;13446;50.926;5.332;2023-05-10T07:42:53;16.00;99.90
25554;DHT22;13446;50.926;5.332;2023-05-10T07:45:19;16.00;99.90
25554;DHT22;13446;50.926;5.332;2023-05-10T07:47:44;16.10;99.90
25554;DHT22;13446;50.926;5.332;2023-05-10T07:50:10;16.20;99.90
25554;DHT22;13446;50.926;5.332;2023-05-10T07:52:35;16.30;99.90
25554;DHT22;13446;50.926;5.332;2023-05-10T07:55:01;16.40;99.90
25554;DHT22;13446;50.926;5.332;2023-05-10T07:57:27;16.50;99.90
25554;DHT22;13446;50.926;5.332;2023-05-10T07:59:52;16.50;99.90
25554;DHT22;13446;50.926;5.332;2023-05-10T08:02:18;16.60;99.90
25554;DHT22;13446;50.926;5.332;2023-05-10T08:04:43;16.70;99.90
25554;DHT22;13446;50.926;5.332;2023-05-10T08:07:09;16.80;99.90
25554;DHT22;13446;50.926;5.332;2023-05-10T08:09:34;16.70;99.90
25554;DHT22;13446;50.926;5.332;2023-05-10T08:12:01;16.60;99.90
25554;DHT22;13446;50.926;5.332;2023-05-10T08:14:27;16.30;99.90
25554;DHT22;13446;50.926;5.332;2023-05-10T08:16:53;16.20;99.90
25554;DHT22;13446;50.926;5.332;2023-05-10T08:19:19;16.10;99.90
25554;DHT22;13446;50.926;5.332;2023-05-10T08:21:46;15.90;99.90
25554;DHT22;13446;50.926;5.332;2023-05-10T08:24:12;16.00;99.90
25554;DHT22;13446;50.926;5.332;2023-05-10T08:26:38;16.00;99.90
25554;DHT22;13446;50.926;5.332;2023-05-10T08:29:04;16.00;99.90
25554;DHT22;13446;50.926;5.332;2023-05-10T08:31:29;16.00;99.90
25554;DHT22;13446;50.926;5.332;2023-05-10T08:33:55;16.00;99.90
25554;DHT22;13446;50.926;5.332;2023-05-10T08:36:20;15.90;99.90
25554;DHT22;13446;50.926;5.332;2023-05-10T08:38:52;15.90;99.90
25554;DHT22;13446;50.926;5.332;2023-05-10T08:41:21;15.80;99.90
25554;DHT22;13446;50.926;5.332;2023-05-10T08:43:47;15.70;99.90
25554;DHT22;13446;50.926;5.332;2023-05-10T08:46:17;15.70;99.90
25554;DHT22;13446;50.926;5.332;2023-05-10T08:48:44;15.80;99.90
25554;DHT22;13446;50.926;5.332;2023-05-10T08:51:10;15.80;99.90
25554;DHT22;13446;50.926;5.332;2023-05-10T08:53:38;15.70;99.90
25554;DHT22;13446;50.926;5.332;2023-05-10T08:56:04;15.70;99.90
25554;DHT22;13446;50.926;5.332;2023-05-10T08:58:29;15.80;99.90
25554;DHT22;13446;50.926;5.332;2023-05-10T09:00:56;15.80;99.90
25554;DHT22;13446;50.926;5.332;2023-05-10T09:03:22;15.70;99.90
25554;DHT22;13446;50.926;5.332;2023-05-10T09:05:48;15.60;99.90
25554;DHT22;13446;50.926;5.332;2023-05-10T09:08:14;15.60;99.90
25554;DHT22;13446;50.926;5.332;2023-05-10T09:10:42;15.60;99.90
25554;DHT22;13446;50.926;5.332;2023-05-10T09:13:09;15.60;99.90
25554;DHT22;13446;50.926;5.332;2023-05-10T09:15:35;15.60;99.90
25554;DHT22;13446;50.926;5.332;2023-05-10T09:18:00;15.80;99.90
25554;DHT22;13446;50.926;5.332;2023-05-10T09:20:27;16.00;99.90
25554;DHT22;13446;50.926;5.332;2023-05-10T09:22:53;16.10;99.90
25554;DHT22;13446;50.926;5.332;2023-05-10T09:25:26;16.30;99.90
25554;DHT22;13446;50.926;5.332;2023-05-10T09:27:52;16.30;99.90
25554;DHT22;13446;50.926;5.332;2023-05-10T09:30:30;16.50;99.90
25554;DHT22;13446;50.926;5.332;2023-05-10T09:32:57;16.70;99.90
25554;DHT22;13446;50.926;5.332;2023-05-10T09:35:23;16.80;99.90
25554;DHT22;13446;50.926;5.332;2023-05-10T09:37:49;17.00;99.90
25554;DHT22;13446;50.926;5.332;2023-05-10T09:40:17;17.00;99.90
25554;DHT22;13446;50.926;5.332;2023-05-10T09:42:50;17.10;99.90
25554;DHT22;13446;50.926;5.332;2023-05-10T09:45:15;17.30;99.90
25554;DHT22;13446;50.926;5.332;2023-05-10T09:47:41;17.40;99.90
25554;DHT22;13446;50.926;5.332;2023-05-10T09:50:07;17.50;99.90
25554;DHT22;13446;50.926;5.332;2023-05-10T09:52:48;17.60;99.90
25554;DHT22;13446;50.926;5.332;2023-05-10T09:55:15;17.70;99.90
25554;DHT22;13446;50.926;5.332;2023-05-10T09:57:40;17.90;99.90
25554;DHT22;13446;50.926;5.332;2023-05-10T10:00:06;17.90;99.90
25554;DHT22;13446;50.926;5.332;2023-05-10T10:02:32;17.70;99.90
25554;DHT22;13446;50.926;5.332;2023-05-10T10:04:59;17.80;99.90
25554;DHT22;13446;50.926;5.332;2023-05-10T10:07:26;17.90;99.90
25554;DHT22;13446;50.926;5.332;2023-05-10T10:09:52;18.10;99.90
25554;DHT22;13446;50.926;5.332;2023-05-10T10:12:18;18.20;99.90
25554;DHT22;13446;50.926;5.332;2023-05-10T10:14:45;18.40;99.90
25554;DHT22;13446;50.926;5.332;2023-05-10T10:17:11;18.30;99.90
25554;DHT22;13446;50.926;5.332;2023-05-10T10:19:37;18.40;99.90
25554;DHT22;13446;50.926;5.332;2023-05-10T10:22:02;18.40;99.90
25554;DHT22;13446;50.926;5.332;2023-05-10T10:24:28;18.20;99.90
25554;DHT22;13446;50.926;5.332;2023-05-10T10:26:55;18.10;99.90
25554;DHT22;13446;50.926;5.332;2023-05-10T10:29:23;18.00;99.90
25554;DHT22;13446;50.926;5.332;2023-05-10T10:31:55;17.80;99.90
25554;DHT22;13446;50.926;5.332;2023-05-10T10:34:25;17.70;99.90
25554;DHT22;13446;50.926;5.332;2023-05-10T10:36:52;17.70;99.90
25554;DHT22;13446;50.926;5.332;2023-05-10T10:39:19;17.80;99.90
25554;DHT22;13446;50.926;5.332;2023-05-10T10:41:52;17.80;99.90
25554;DHT22;13446;50.926;5.332;2023-05-10T10:50:05;18.00;99.90
25554;DHT22;13446;50.926;5.332;2023-05-10T10:52:23;18.10;99.90
25554;DHT22;13446;50.926;5.332;2023-05-10T10:57:18;18.00;99.90
25554;DHT22;13446;50.926;5.332;2023-05-10T10:59:43;18.20;99.90
25554;DHT22;13446;50.926;5.332;2023-05-10T11:02:09;18.30;99.90
25554;DHT22;13446;50.926;5.332;2023-05-10T11:04:42;18.30;99.90
25554;DHT22;13446;50.926;5.332;2023-05-10T11:07:18;18.40;99.90
25554;DHT22;13446;50.926;5.332;2023-05-10T11:09:45;18.10;99.90
25554;DHT22;13446;50.926;5.332;2023-05-10T11:12:12;18.40;99.90
25554;DHT22;13446;50.926;5.332;2023-05-10T11:14:37;18.50;99.90
25554;DHT22;13446;50.926;5.332;2023-05-10T11:17:21;18.30;99.90
25554;DHT22;13446;50.926;5.332;2023-05-10T11:20:02;18.40;99.90
25554;DHT22;13446;50.926;5.332;2023-05-10T11:22:28;18.60;99.90
25554;DHT22;13446;50.926;5.332;2023-05-10T11:24:57;18.40;99.90
25554;DHT22;13446;50.926;5.332;2023-05-10T11:27:23;18.40;99.90
25554;DHT22;13446;50.926;5.332;2023-05-10T11:29:52;18.60;99.90
25554;DHT22;13446;50.926;5.332;2023-05-10T11:32:18;18.70;99.90
25554;DHT22;13446;50.926;5.332;2023-05-10T11:34:46;18.90;99.90
25554;DHT22;13446;50.926;5.332;2023-05-10T11:37:13;19.20;99.90
25554;DHT22;13446;50.926;5.332;2023-05-10T11:39:38;19.40;99.90
25554;DHT22;13446;50.926;5.332;2023-05-10T11:42:11;19.60;99.90
25554;DHT22;13446;50.926;5.332;2023-05-10T11:44:37;19.60;99.90
25554;DHT22;13446;50.926;5.332;2023-05-10T11:47:02;19.80;99.90
25554;DHT22;13446;50.926;5.332;2023-05-10T11:49:28;19.90;99.90
25554;DHT22;13446;50.926;5.332;2023-05-10T11:52:03;19.80;99.90
25554;DHT22;13446;50.926;5.332;2023-05-10T11:54:29;20.00;99.90
25554;DHT22;13446;50.926;5.332;2023-05-10T11:56:54;19.90;99.90
25554;DHT22;13446;50.926;5.332;2023-05-10T11:59:20;19.70;99.90
25554;DHT22;13446;50.926;5.332;2023-05-10T12:01:45;19.80;99.90
25554;DHT22;13446;50.926;5.332;2023-05-10T12:04:11;19.70;99.90
25554;DHT22;13446;50.926;5.332;2023-05-10T12:06:39;19.60;99.90
25554;DHT22;13446;50.926;5.332;2023-05-10T12:09:06;19.80;99.90
25554;DHT22;13446;50.926;5.332;2023-05-10T12:11:32;19.80;99.90
25554;DHT22;13446;50.926;5.332;2023-05-10T12:14:03;19.90;99.90
25554;DHT22;13446;50.926;5.332;2023-05-10T12:16:29;19.90;99.90
25554;DHT22;13446;50.926;5.332;2023-05-10T12:18:56;19.90;99.90
25554;DHT22;13446;50.926;5.332;2023-05-10T12:21:22;19.80;99.90
25554;DHT22;13446;50.926;5.332;2023-05-10T12:23:52;19.90;99.90
25554;DHT22;13446;50.926;5.332;2023-05-10T12:26:20;19.80;99.90
25554;DHT22;13446;50.926;5.332;2023-05-10T12:28:46;19.90;99.90
25554;DHT22;13446;50.926;5.332;2023-05-10T12:31:12;20.00;99.90
25554;DHT22;13446;50.926;5.332;2023-05-10T12:33:41;20.10;99.90
25554;DHT22;13446;50.926;5.332;2023-05-10T12:36:08;20.10;99.90
25554;DHT22;13446;50.926;5.332;2023-05-10T12:38:35;20.40;99.90
25554;DHT22;13446;50.926;5.332;2023-05-10T12:41:01;20.40;99.90
25554;DHT22;13446;50.926;5.332;2023-05-10T12:43:27;20.30;99.90
25554;DHT22;13446;50.926;5.332;2023-05-10T12:45:53;20.40;99.90
25554;DHT22;13446;50.926;5.332;2023-05-10T12:48:19;20.30;99.90
25554;DHT22;13446;50.926;5.332;2023-05-10T12:50:45;20.40;99.90
25554;DHT22;13446;50.926;5.332;2023-05-10T12:53:10;20.40;99.90
25554;DHT22;13446;50.926;5.332;2023-05-10T12:55:36;20.30;99.90
25554;DHT22;13446;50.926;5.332;2023-05-10T12:58:01;20.30;99.90
25554;DHT22;13446;50.926;5.332;2023-05-10T13:00:27;20.50;99.90
25554;DHT22;13446;50.926;5.332;2023-05-10T13:02:52;20.40;99.90
25554;DHT22;13446;50.926;5.332;2023-05-10T13:05:18;20.60;99.90
25554;DHT22;13446;50.926;5.332;2023-05-10T13:07:44;20.40;99.90
25554;DHT22;13446;50.926;5.332;2023-05-10T13:10:09;20.30;99.90
25554;DHT22;13446;50.926;5.332;2023-05-10T13:12:35;20.50;99.90
25554;DHT22;13446;50.926;5.332;2023-05-10T13:15:01;20.60;99.90
25554;DHT22;13446;50.926;5.332;2023-05-10T13:17:28;20.60;99.90
25554;DHT22;13446;50.926;5.332;2023-05-10T13:19:53;20.80;99.90
25554;DHT22;13446;50.926;5.332;2023-05-10T13:22:19;21.00;99.90
25554;DHT22;13446;50.926;5.332;2023-05-10T13:24:45;21.00;99.90
25554;DHT22;13446;50.926;5.332;2023-05-10T13:27:10;21.10;99.90
25554;DHT22;13446;50.926;5.332;2023-05-10T13:29:36;21.10;99.90
25554;DHT22;13446;50.926;5.332;2023-05-10T13:32:01;21.10;99.90
25554;DHT22;13446;50.926;5.332;2023-05-10T13:34:27;21.10;99.90
25554;DHT22;13446;50.926;5.332;2023-05-10T13:36:53;21.10;99.90
25554;DHT22;13446;50.926;5.332;2023-05-10T13:39:19;20.90;99.90
25554;DHT22;13446;50.926;5.332;2023-05-10T13:41:45;20.80;99.90
25554;DHT22;13446;50.926;5.332;2023-05-10T13:44:14;20.70;99.90
25554;DHT22;13446;50.926;5.332;2023-05-10T13:46:42;20.60;99.90
25554;DHT22;13446;50.926;5.332;2023-05-10T13:49:09;20.50;99.90
25554;DHT22;13446;50.926;5.332;2023-05-10T13:51:34;20.40;99.90
25554;DHT22;13446;50.926;5.332;2023-05-10T13:54:01;20.50;99.90
25554;DHT22;13446;50.926;5.332;2023-05-10T13:56:26;20.50;99.90
25554;DHT22;13446;50.926;5.332;2023-05-10T13:58:53;20.40;99.90
25554;DHT22;13446;50.926;5.332;2023-05-10T14:01:19;20.20;99.90
25554;DHT22;13446;50.926;5.332;2023-05-10T14:03:44;20.20;99.90
25554;DHT22;13446;50.926;5.332;2023-05-10T14:06:10;20.20;99.90
25554;DHT22;13446;50.926;5.332;2023-05-10T14:08:36;19.90;99.90
25554;DHT22;13446;50.926;5.332;2023-05-10T14:11:01;20.00;99.90
25554;DHT22;13446;50.926;5.332;2023-05-10T14:13:27;20.10;99.90
25554;DHT22;13446;50.926;5.332;2023-05-10T14:15:53;20.20;99.90
25554;DHT22;13446;50.926;5.332;2023-05-10T14:18:19;20.20;99.90
25554;DHT22;13446;50.926;5.332;2023-05-10T14:20:44;20.30;99.90
25554;DHT22;13446;50.926;5.332;2023-05-10T14:23:10;20.30;99.90
25554;DHT22;13446;50.926;5.332;2023-05-10T14:25:36;20.50;99.90
25554;DHT22;13446;50.926;5.332;2023-05-10T14:28:03;20.70;99.90
25554;DHT22;13446;50.926;5.332;2023-05-10T14:30:28;20.70;99.90
25554;DHT22;13446;50.926;5.332;2023-05-10T14:32:54;20.90;99.90
25554;DHT22;13446;50.926;5.332;2023-05-10T14:35:20;21.10;99.90
25554;DHT22;13446;50.926;5.332;2023-05-10T14:37:46;20.80;99.90
25554;DHT22;13446;50.926;5.332;2023-05-10T14:40:12;20.90;99.90
25554;DHT22;13446;50.926;5.332;2023-05-10T14:42:37;20.90;99.90
25554;DHT22;13446;50.926;5.332;2023-05-10T14:45:03;20.80;99.90
25554;DHT22;13446;50.926;5.332;2023-05-10T14:47:29;20.70;99.90
25554;DHT22;13446;50.926;5.332;2023-05-10T14:49:55;20.70;99.90
25554;DHT22;13446;50.926;5.332;2023-05-10T14:52:20;21.20;99.90
25554;DHT22;13446;50.926;5.332;2023-05-10T14:54:46;21.30;99.90
25554;DHT22;13446;50.926;5.332;2023-05-10T14:57:11;21.30;99.90
25554;DHT22;13446;50.926;5.332;2023-05-10T14:59:37;21.40;99.90
25554;DHT22;13446;50.926;5.332;2023-05-10T15:02:02;21.40;99.90
25554;DHT22;13446;50.926;5.332;2023-05-10T15:04:29;21.50;99.90
25554;DHT22;13446;50.926;5.332;2023-05-10T15:06:55;21.40;99.90
25554;DHT22;13446;50.926;5.332;2023-05-10T15:09:24;21.10;99.90
25554;DHT22;13446;50.926;5.332;2023-05-10T15:11:50;20.60;99.90
25554;DHT22;13446;50.926;5.332;2023-05-10T15:14:15;20.60;99.90
25554;DHT22;13446;50.926;5.332;2023-05-10T15:16:41;20.60;99.90
25554;DHT22;13446;50.926;5.332;2023-05-10T15:19:06;20.70;99.90
25554;DHT22;13446;50.926;5.332;2023-05-10T15:21:32;20.90;99.90
25554;DHT22;13446;50.926;5.332;2023-05-10T15:24:07;21.00;99.90
25554;DHT22;13446;50.926;5.332;2023-05-10T15:26:32;20.90;99.90
25554;DHT22;13446;50.926;5.332;2023-05-10T15:28:58;21.00;99.90
25554;DHT22;13446;50.926;5.332;2023-05-10T15:31:24;21.20;99.90
25554;DHT22;13446;50.926;5.332;2023-05-10T15:33:50;21.30;99.90
25554;DHT22;13446;50.926;5.332;2023-05-10T15:36:18;21.40;99.90
25554;DHT22;13446;50.926;5.332;2023-05-10T15:38:44;21.30;99.90
25554;DHT22;13446;50.926;5.332;2023-05-10T15:41:10;21.10;99.90
25554;DHT22;13446;50.926;5.332;2023-05-10T15:43:36;21.20;99.90
25554;DHT22;13446;50.926;5.332;2023-05-10T15:46:02;21.40;99.90
25554;DHT22;13446;50.926;5.332;2023-05-10T15:48:28;21.10;99.90